createdAt,value
2023-03-12T00:00:54.637Z,91.57
2023-03-12T00:03:22.957Z,91.06
2023-03-12T00:05:50.032Z,91.03
2023-03-12T00:08:17.820Z,92.07
2023-03-12T00:10:45.098Z,92.75
2023-03-12T00:13:12.087Z,93.80
2023-03-12T00:15:39.572Z,94.78
2023-03-12T00:18:07.072Z,96.23
2023-03-12T00:20:34.180Z,96.07
2023-03-12T00:23:01.377Z,97.90
2023-03-12T00:25:28.791Z,98.65
2023-03-12T00:27:55.934Z,98.43
2023-03-12T00:30:23.112Z,98.52
2023-03-12T00:32:50.600Z,98.61
2023-03-12T00:35:17.713Z,98.71
2023-03-12T00:37:45.015Z,98.47
2023-03-12T00:40:12.942Z,98.78
2023-03-12T00:42:40.029Z,98.80
2023-03-12T00:45:07.840Z,98.92
2023-03-12T00:47:35.218Z,99.30
2023-03-12T00:50:02.475Z,99.45
2023-03-12T00:52:29.568Z,98.93
2023-03-12T00:54:58.889Z,99.41
2023-03-12T00:57:26.076Z,99.43
2023-03-12T00:59:53.211Z,100.00
2023-03-12T01:02:21.176Z,99.32
2023-03-12T01:04:48.347Z,99.57
2023-03-12T01:07:15.522Z,99.99
2023-03-12T01:09:43.004Z,99.82
2023-03-12T01:12:10.277Z,99.50
2023-03-12T01:14:37.392Z,99.54
2023-03-12T01:17:04.775Z,100.00
2023-03-12T01:19:31.984Z,100.00
2023-03-12T01:21:59.090Z,100.00
2023-03-12T01:24:26.571Z,100.00
2023-03-12T01:26:53.742Z,100.00
2023-03-12T01:29:20.881Z,100.00
2023-03-12T01:31:48.455Z,100.00
2023-03-12T01:34:15.715Z,100.00
2023-03-12T01:36:42.882Z,100.00
2023-03-12T01:39:10.280Z,100.00
2023-03-12T01:41:37.869Z,100.00
2023-03-12T01:44:06.312Z,100.00
2023-03-12T01:46:38.351Z,100.00
2023-03-12T01:49:06.162Z,100.00
2023-03-12T01:51:37.770Z,100.00
2023-03-12T01:54:08.148Z,100.00
2023-03-12T01:56:36.760Z,100.00
2023-03-12T01:59:09.677Z,100.00
2023-03-12T02:01:37.717Z,100.00
2023-03-12T02:04:05.753Z,100.00
2023-03-12T02:06:53.123Z,100.00
2023-03-12T02:09:21.560Z,100.00
2023-03-12T02:11:49.033Z,100.00
2023-03-12T02:14:16.802Z,100.00
2023-03-12T02:16:44.998Z,100.00
2023-03-12T02:19:24.842Z,100.00
2023-03-12T02:21:52.498Z,100.00
2023-03-12T02:24:30.788Z,100.00
2023-03-12T02:26:58.669Z,100.00
2023-03-12T02:29:28.245Z,100.00
2023-03-12T02:31:56.910Z,100.00
2023-03-12T02:34:24.501Z,100.00
2023-03-12T02:36:51.751Z,100.00
2023-03-12T02:39:19.622Z,100.00
2023-03-12T02:41:53.555Z,100.00
2023-03-12T02:44:30.285Z,100.00
2023-03-12T02:47:00.185Z,100.00
2023-03-12T02:49:30.580Z,100.00
2023-03-12T02:52:00.393Z,100.00
2023-03-12T02:54:27.980Z,100.00
2023-03-12T02:56:55.951Z,100.00
2023-03-12T02:59:26.784Z,100.00
2023-03-12T03:01:56.218Z,100.00
2023-03-12T03:04:25.464Z,100.00
2023-03-12T03:06:52.871Z,100.00
2023-03-12T03:09:22.227Z,100.00
2023-03-12T03:11:50.370Z,100.00
2023-03-12T03:14:17.902Z,100.00
2023-03-12T03:16:46.526Z,100.00
2023-03-12T03:19:13.992Z,100.00
2023-03-12T03:21:41.088Z,100.00
2023-03-12T03:24:08.467Z,100.00
2023-03-12T03:26:35.899Z,100.00
2023-03-12T03:29:03.475Z,100.00
2023-03-12T03:31:30.730Z,100.00
2023-03-12T03:33:58.407Z,100.00
2023-03-12T03:36:25.556Z,100.00
2023-03-12T03:38:53.440Z,100.00
2023-03-12T03:41:21.380Z,100.00
2023-03-12T03:43:49.019Z,100.00
2023-03-12T03:46:18.154Z,100.00
2023-03-12T03:49:03.060Z,100.00
2023-03-12T03:51:30.346Z,100.00
2023-03-12T03:54:00.447Z,100.00
2023-03-12T03:56:27.961Z,100.00
2023-03-12T03:58:55.072Z,100.00
2023-03-12T04:01:22.946Z,100.00
2023-03-12T04:03:51.082Z,100.00
2023-03-12T04:06:18.710Z,100.00
2023-03-12T04:08:45.802Z,100.00
2023-03-12T04:11:15.848Z,100.00
2023-03-12T04:13:43.810Z,100.00
2023-03-12T04:16:11.270Z,100.00
2023-03-12T04:18:41.134Z,100.00
2023-03-12T04:21:09.915Z,100.00
2023-03-12T04:23:37.993Z,100.00
2023-03-12T04:26:06.506Z,100.00
2023-03-12T04:28:35.428Z,100.00
2023-03-12T04:31:05.417Z,100.00
2023-03-12T04:33:36.372Z,100.00
2023-03-12T04:36:04.463Z,100.00
2023-03-12T04:38:31.976Z,100.00
2023-03-12T04:41:11.609Z,100.00
2023-03-12T04:43:38.975Z,100.00
2023-03-12T04:46:06.977Z,100.00
2023-03-12T04:48:34.881Z,100.00
2023-03-12T04:51:03.440Z,100.00
2023-03-12T04:53:31.424Z,100.00
2023-03-12T04:55:59.320Z,100.00
2023-03-12T04:58:27.545Z,100.00
2023-03-12T05:00:55.086Z,100.00
2023-03-12T05:03:22.397Z,100.00
2023-03-12T05:05:49.475Z,100.00
2023-03-12T05:08:17.956Z,100.00
2023-03-12T05:10:45.597Z,100.00
2023-03-12T05:13:18.094Z,100.00
2023-03-12T05:15:47.644Z,100.00
2023-03-12T05:18:15.286Z,100.00
2023-03-12T05:20:42.694Z,100.00
2023-03-12T05:23:10.302Z,100.00
2023-03-12T05:25:41.243Z,100.00
2023-03-12T05:28:09.025Z,100.00
2023-03-12T05:30:37.060Z,100.00
2023-03-12T05:33:04.327Z,100.00
2023-03-12T05:35:31.829Z,100.00
2023-03-12T05:37:59.313Z,100.00
2023-03-12T05:40:26.455Z,100.00
2023-03-12T05:42:53.840Z,100.00
2023-03-12T05:45:21.956Z,100.00
2023-03-12T05:47:50.770Z,100.00
2023-03-12T05:50:18.215Z,100.00
2023-03-12T05:52:45.719Z,100.00
2023-03-12T05:55:12.848Z,100.00
2023-03-12T05:57:40.022Z,100.00
2023-03-12T06:00:08.380Z,100.00
2023-03-12T06:02:40.374Z,100.00
2023-03-12T06:05:10.224Z,100.00
2023-03-12T06:07:37.662Z,100.00
2023-03-12T06:10:05.449Z,100.00
2023-03-12T06:12:32.938Z,100.00
2023-03-12T06:15:00.967Z,100.00
2023-03-12T06:17:29.936Z,100.00
2023-03-12T06:19:57.993Z,100.00
2023-03-12T06:22:25.469Z,100.00
2023-03-12T06:24:52.640Z,100.00
2023-03-12T06:27:20.105Z,100.00
2023-03-12T06:29:47.280Z,100.00
2023-03-12T06:32:14.690Z,100.00
2023-03-12T06:34:42.174Z,100.00
2023-03-12T06:37:09.363Z,100.00
2023-03-12T06:39:36.531Z,100.00
2023-03-12T06:42:04.452Z,100.00
2023-03-12T06:44:31.853Z,100.00
2023-03-12T06:46:59.053Z,100.00
2023-03-12T06:49:27.454Z,100.00
2023-03-12T06:51:56.005Z,100.00
2023-03-12T06:54:23.154Z,100.00
2023-03-12T06:56:50.512Z,100.00
2023-03-12T06:59:18.426Z,100.00
2023-03-12T07:01:45.634Z,100.00
2023-03-12T07:04:13.160Z,100.00
2023-03-12T07:06:40.268Z,100.00
2023-03-12T07:09:07.538Z,100.00
2023-03-12T07:11:35.391Z,100.00
2023-03-12T07:14:02.526Z,100.00
2023-03-12T07:16:30.970Z,100.00
2023-03-12T07:18:59.049Z,100.00
2023-03-12T07:21:26.359Z,100.00
2023-03-12T07:23:53.862Z,99.97
2023-03-12T07:26:21.969Z,99.11
2023-03-12T07:28:49.198Z,100.00
2023-03-12T07:31:16.348Z,100.00
2023-03-12T07:33:44.299Z,98.41
2023-03-12T07:36:11.605Z,97.42
2023-03-12T07:38:38.754Z,97.26
2023-03-12T07:41:06.142Z,95.70
2023-03-12T07:43:33.289Z,96.72
2023-03-12T07:46:00.654Z,97.12
2023-03-12T07:48:28.239Z,98.15
2023-03-12T07:50:55.661Z,94.28
2023-03-12T07:53:22.847Z,95.63
2023-03-12T07:55:53.237Z,95.43
2023-03-12T07:58:20.392Z,92.95
2023-03-12T08:00:47.803Z,92.13
2023-03-12T08:03:17.094Z,91.57
2023-03-12T08:05:44.289Z,87.50
2023-03-12T08:08:11.434Z,88.50
2023-03-12T08:10:39.117Z,88.16
2023-03-12T08:13:06.205Z,85.20
2023-03-12T08:15:33.589Z,84.71
2023-03-12T08:18:01.501Z,83.17
2023-03-12T08:20:28.666Z,81.80
2023-03-12T08:22:57.232Z,81.71
2023-03-12T08:25:24.801Z,80.95
2023-03-12T08:27:52.077Z,80.26
2023-03-12T08:30:19.133Z,81.01
2023-03-12T08:32:46.771Z,82.01
2023-03-12T08:35:13.910Z,83.13
2023-03-12T08:37:41.596Z,81.61
2023-03-12T08:40:18.829Z,80.73
2023-03-12T08:42:45.926Z,81.77
2023-03-12T08:45:14.162Z,81.06
2023-03-12T08:47:42.758Z,78.97
2023-03-12T08:50:11.707Z,76.84
2023-03-12T08:52:39.556Z,77.90
2023-03-12T08:55:06.862Z,75.20
2023-03-12T08:57:33.927Z,74.17
2023-03-12T09:00:01.292Z,73.36
2023-03-12T09:02:28.696Z,72.57
2023-03-12T09:04:55.771Z,71.64
2023-03-12T09:07:23.272Z,70.96
2023-03-12T09:09:50.434Z,68.99
2023-03-12T09:12:17.778Z,66.44
2023-03-12T09:17:32.234Z,65.07
2023-03-12T09:20:00.212Z,63.97
2023-03-12T09:22:29.960Z,65.71
2023-03-12T09:24:57.149Z,65.19
2023-03-12T09:27:24.749Z,65.26
2023-03-12T09:30:00.237Z,64.12
2023-03-12T09:32:28.874Z,65.78
2023-03-12T09:34:56.073Z,62.88
2023-03-12T09:37:24.340Z,61.15
2023-03-12T09:39:53.017Z,62.17
2023-03-12T09:42:26.315Z,60.94
2023-03-12T09:44:55.759Z,61.07
2023-03-12T09:47:30.005Z,60.12
2023-03-12T09:50:04.814Z,59.84
2023-03-12T09:52:39.832Z,60.34
2023-03-12T09:55:08.874Z,61.46
2023-03-12T09:57:36.008Z,59.86
2023-03-12T10:00:06.913Z,58.69
2023-03-12T10:02:41.135Z,60.70
2023-03-12T10:05:14.827Z,56.76
2023-03-12T10:07:48.545Z,57.22
2023-03-12T10:10:22.316Z,58.59
2023-03-12T10:13:02.468Z,57.56
2023-03-12T10:15:41.872Z,55.32
2023-03-12T10:18:41.557Z,54.29
2023-03-12T10:21:43.098Z,55.82
2023-03-12T10:24:25.503Z,56.15
2023-03-12T10:26:55.993Z,57.46
2023-03-12T10:29:24.531Z,56.72
2023-03-12T10:32:11.456Z,57.01
2023-03-12T10:34:51.077Z,56.68
2023-03-12T10:37:21.512Z,55.69
2023-03-12T10:39:50.045Z,52.68
2023-03-12T10:42:22.782Z,48.60
2023-03-12T10:45:00.970Z,50.57
2023-03-12T10:47:38.832Z,49.12
2023-03-12T10:50:19.258Z,48.18
2023-03-12T10:52:48.094Z,48.11
2023-03-12T10:55:26.298Z,47.15
2023-03-12T10:57:54.057Z,46.98
2023-03-12T11:00:30.059Z,47.73
2023-03-12T11:03:18.638Z,47.52
2023-03-12T11:05:50.686Z,47.25
2023-03-12T11:08:27.333Z,44.53
2023-03-12T11:10:55.666Z,43.95
2023-03-12T11:13:38.153Z,40.44
2023-03-12T11:16:18.022Z,42.43
2023-03-12T11:19:02.095Z,40.07
2023-03-12T11:21:36.991Z,39.92
2023-03-12T11:24:12.263Z,38.39
2023-03-12T11:26:49.369Z,38.01
2023-03-12T11:29:26.662Z,37.79
2023-03-12T11:32:10.829Z,38.38
2023-03-12T11:34:38.841Z,38.58
2023-03-12T11:37:18.344Z,38.59
2023-03-12T11:39:54.536Z,37.01
2023-03-12T11:42:27.896Z,35.41
2023-03-12T11:45:07.194Z,35.32
2023-03-12T11:47:59.217Z,36.84
2023-03-12T11:50:32.311Z,38.89
2023-03-12T11:53:10.116Z,38.39
2023-03-12T11:56:18.612Z,35.66
2023-03-12T11:58:48.573Z,34.48
2023-03-12T12:01:18.666Z,35.63
2023-03-12T12:03:59.464Z,36.53
2023-03-12T12:06:35.247Z,35.49
2023-03-12T12:09:28.872Z,36.75
2023-03-12T12:12:08.299Z,36.24
2023-03-12T12:14:56.223Z,35.04
2023-03-12T12:17:35.323Z,35.29
2023-03-12T12:20:34.564Z,35.30
2023-03-12T12:23:28.526Z,35.10
2023-03-12T12:26:19.789Z,35.39
2023-03-12T12:28:50.440Z,33.32
2023-03-12T12:31:40.964Z,34.07
2023-03-12T12:34:30.866Z,34.77
2023-03-12T12:37:19.529Z,33.95
2023-03-12T12:39:53.565Z,35.68
2023-03-12T12:42:24.898Z,36.83
2023-03-12T12:44:54.184Z,36.17
2023-03-12T12:47:33.663Z,37.13
2023-03-12T12:50:01.939Z,35.00
2023-03-12T12:52:29.561Z,33.77
2023-03-12T12:55:41.812Z,34.14
2023-03-12T12:58:34.916Z,34.24
2023-03-12T13:01:02.626Z,34.70
2023-03-12T13:03:30.840Z,33.37
2023-03-12T13:06:03.464Z,34.87
2023-03-12T13:08:35.275Z,33.33
2023-03-12T13:11:20.295Z,33.11
2023-03-12T13:13:52.441Z,32.98
2023-03-12T13:16:34.431Z,31.52
2023-03-12T13:19:04.926Z,31.97
2023-03-12T13:21:46.546Z,29.13
2023-03-12T13:24:24.840Z,30.05
2023-03-12T13:27:18.939Z,29.67
2023-03-12T13:29:46.415Z,30.11
2023-03-12T13:32:35.190Z,29.76
2023-03-12T13:35:22.824Z,29.65
2023-03-12T13:37:52.618Z,29.91
2023-03-12T13:40:53.562Z,28.67
2023-03-12T13:43:38.952Z,29.00
2023-03-12T13:46:21.189Z,29.17
2023-03-12T13:48:49.325Z,29.04
2023-03-12T13:51:19.206Z,29.09
2023-03-12T13:53:52.664Z,28.98
2023-03-12T13:56:25.298Z,27.51
2023-03-12T13:58:56.665Z,25.87
2023-03-12T14:01:29.099Z,28.67
2023-03-12T14:04:03.692Z,28.43
2023-03-12T14:06:39.144Z,30.12
2023-03-12T14:09:28.357Z,31.56
2023-03-12T14:12:20.571Z,31.36
2023-03-12T14:15:03.281Z,30.82
2023-03-12T14:17:31.791Z,30.46
2023-03-12T14:20:16.930Z,30.76
2023-03-12T14:22:48.722Z,30.36
2023-03-12T14:25:32.008Z,30.87
2023-03-12T14:27:59.496Z,30.51
2023-03-12T14:30:41.554Z,29.93
2023-03-12T14:33:12.401Z,30.04
2023-03-12T14:35:52.244Z,30.22
2023-03-12T14:38:30.560Z,29.59
2023-03-12T14:41:01.631Z,29.70
2023-03-12T14:43:30.621Z,27.60
2023-03-12T14:46:02.698Z,27.85
2023-03-12T14:48:34.728Z,27.09
2023-03-12T14:51:03.574Z,26.99
2023-03-12T14:53:33.433Z,27.27
2023-03-12T14:56:07.520Z,27.79
2023-03-12T14:58:36.827Z,28.26
2023-03-12T15:01:07.228Z,28.70
2023-03-12T15:03:42.180Z,30.62
2023-03-12T15:06:22.471Z,30.39
2023-03-12T15:08:50.068Z,30.18
2023-03-12T15:11:21.860Z,30.61
2023-03-12T15:13:49.569Z,30.75
2023-03-12T15:16:17.475Z,30.77
2023-03-12T15:18:44.866Z,31.20
2023-03-12T15:21:11.999Z,29.93
2023-03-12T15:23:40.219Z,30.41
2023-03-12T15:26:19.556Z,30.26
2023-03-12T15:29:05.524Z,29.90
2023-03-12T15:31:48.907Z,29.86
2023-03-12T15:34:35.944Z,29.75
2023-03-12T15:37:40.940Z,29.46
2023-03-12T15:40:20.691Z,29.89
2023-03-12T15:42:48.181Z,30.19
2023-03-12T15:45:26.641Z,30.45
2023-03-12T15:47:54.505Z,30.24
2023-03-12T15:50:24.246Z,30.37
2023-03-12T15:53:12.674Z,30.69
2023-03-12T15:55:41.814Z,31.19
2023-03-12T15:58:31.598Z,30.94
2023-03-12T16:01:15.229Z,31.95
2023-03-12T16:03:45.525Z,31.79
2023-03-12T16:06:18.883Z,32.21
2023-03-12T16:08:48.252Z,32.53
2023-03-12T16:11:20.864Z,32.96
2023-03-12T16:13:49.764Z,33.00
2023-03-12T16:16:17.182Z,33.47
2023-03-12T16:18:44.654Z,33.93
2023-03-12T16:21:12.509Z,34.25
2023-03-12T16:23:39.959Z,35.14
2023-03-12T16:26:07.233Z,34.74
2023-03-12T16:28:37.657Z,35.00
2023-03-12T16:31:13.838Z,35.42
2023-03-12T16:33:41.692Z,36.16
2023-03-12T16:36:16.761Z,36.62
2023-03-12T16:38:45.128Z,36.57
2023-03-12T16:41:14.109Z,37.72
2023-03-12T16:43:41.998Z,38.76
2023-03-12T16:46:09.769Z,39.31
2023-03-12T16:48:37.107Z,40.90
2023-03-12T16:51:04.432Z,41.57
2023-03-12T16:53:31.851Z,42.18
2023-03-12T16:56:01.238Z,42.97
2023-03-12T16:58:28.882Z,43.02
2023-03-12T17:00:56.915Z,44.23
2023-03-12T17:03:42.314Z,44.96
2023-03-12T17:06:16.906Z,45.80
2023-03-12T17:08:44.168Z,47.26
2023-03-12T17:11:23.793Z,44.77
2023-03-12T17:13:54.275Z,45.00
2023-03-12T17:16:22.262Z,45.92
2023-03-12T17:18:49.514Z,46.44
2023-03-12T17:21:17.879Z,46.69
2023-03-12T17:23:47.380Z,46.74
2023-03-12T17:26:14.476Z,47.58
2023-03-12T17:28:41.674Z,48.58
2023-03-12T17:31:09.300Z,49.30
2023-03-12T17:33:38.202Z,51.03
2023-03-12T17:36:07.766Z,50.47
2023-03-12T17:38:35.854Z,51.21
2023-03-12T17:41:09.417Z,51.51
2023-03-12T17:43:41.842Z,52.17
2023-03-12T17:46:09.811Z,52.34
2023-03-12T17:48:37.109Z,53.02
2023-03-12T17:51:09.973Z,53.83
2023-03-12T17:53:39.487Z,55.02
2023-03-12T17:56:07.189Z,55.20
2023-03-12T17:58:34.317Z,55.60
2023-03-12T18:01:01.711Z,55.75
2023-03-12T18:03:29.456Z,56.02
2023-03-12T18:05:56.599Z,57.64
2023-03-12T18:08:23.685Z,57.23
2023-03-12T18:10:51.219Z,57.54
2023-03-12T18:13:18.454Z,58.92
2023-03-12T18:15:53.891Z,59.53
2023-03-12T18:18:21.699Z,59.77
2023-03-12T18:20:49.187Z,60.21
2023-03-12T18:23:16.698Z,61.32
2023-03-12T18:25:44.221Z,61.69
2023-03-12T18:28:11.541Z,61.89
2023-03-12T18:30:38.638Z,62.75
2023-03-12T18:33:06.060Z,63.14
2023-03-12T18:35:33.166Z,63.55
2023-03-12T18:38:00.400Z,63.12
2023-03-12T18:40:29.049Z,64.37
2023-03-12T18:42:59.898Z,64.69
2023-03-12T18:45:27.910Z,65.49
2023-03-12T18:47:55.082Z,65.58
2023-03-12T18:50:22.409Z,65.73
2023-03-12T18:52:49.837Z,66.18
2023-03-12T18:55:17.061Z,66.04
2023-03-12T18:57:45.214Z,65.50
2023-03-12T19:00:15.281Z,65.97
2023-03-12T19:02:42.474Z,66.03
2023-03-12T19:05:11.023Z,65.91
2023-03-12T19:07:39.454Z,64.22
2023-03-12T19:10:07.830Z,64.25
2023-03-12T19:12:45.355Z,63.22
2023-03-12T19:15:16.590Z,61.50
2023-03-12T19:17:43.665Z,61.01
2023-03-12T19:20:11.634Z,60.88
2023-03-12T19:22:38.951Z,60.32
2023-03-12T19:25:06.447Z,60.01
2023-03-12T19:27:33.543Z,59.79
2023-03-12T19:30:00.982Z,59.95
2023-03-12T19:32:41.981Z,60.27
2023-03-12T19:35:11.151Z,60.57
2023-03-12T19:37:38.360Z,60.56
2023-03-12T19:40:06.218Z,60.68
2023-03-12T19:42:33.801Z,60.73
2023-03-12T19:45:00.916Z,60.72
2023-03-12T19:47:28.179Z,60.51
2023-03-12T19:49:55.616Z,60.76
2023-03-12T19:52:22.971Z,60.62
2023-03-12T19:55:03.464Z,61.04
2023-03-12T19:57:32.712Z,61.11
2023-03-12T19:59:59.785Z,61.72
2023-03-12T20:02:27.105Z,62.78
2023-03-12T20:04:55.468Z,62.58
2023-03-12T20:07:22.702Z,62.75
2023-03-12T20:09:49.923Z,63.23
2023-03-12T20:12:17.294Z,62.38
2023-03-12T20:14:44.691Z,62.49
2023-03-12T20:17:12.311Z,63.30
2023-03-12T20:19:40.081Z,63.59
2023-03-12T20:22:07.423Z,64.18
2023-03-12T20:24:34.737Z,64.21
2023-03-12T20:27:02.227Z,63.90
2023-03-12T20:29:29.500Z,63.82
2023-03-12T20:31:56.703Z,63.89
2023-03-12T20:34:24.141Z,63.94
2023-03-12T20:36:51.197Z,64.07
2023-03-12T20:39:18.357Z,64.25
2023-03-12T20:41:49.476Z,64.36
2023-03-12T20:44:16.954Z,64.81
2023-03-12T20:46:44.335Z,64.84
2023-03-12T20:49:11.792Z,65.62
2023-03-12T20:51:40.508Z,65.47
2023-03-12T20:54:07.606Z,65.24
2023-03-12T20:56:35.056Z,65.49
2023-03-12T20:59:02.231Z,65.49
2023-03-12T21:01:29.339Z,65.79
2023-03-12T21:03:57.896Z,66.64
2023-03-12T21:06:25.256Z,67.12
2023-03-12T21:08:52.350Z,67.22
2023-03-12T21:11:19.777Z,67.88
2023-03-12T21:13:47.049Z,68.15
2023-03-12T21:16:14.411Z,68.42
2023-03-12T21:18:41.785Z,68.32
2023-03-12T21:21:09.415Z,68.10
2023-03-12T21:23:37.058Z,68.59
2023-03-12T21:26:09.092Z,68.89
2023-03-12T21:28:36.715Z,68.88
2023-03-12T21:31:15.668Z,68.21
2023-03-12T21:33:42.999Z,68.34
2023-03-12T21:36:12.397Z,67.98
2023-03-12T21:38:40.377Z,67.42
2023-03-12T21:41:09.176Z,67.27
2023-03-12T21:43:36.886Z,67.34
2023-03-12T21:46:11.462Z,68.38
2023-03-12T21:48:39.368Z,68.19
2023-03-12T21:51:08.887Z,68.51
2023-03-12T21:53:36.594Z,68.19
2023-03-12T21:56:05.523Z,68.69
2023-03-12T21:58:33.211Z,68.51
2023-03-12T22:01:15.397Z,68.63
2023-03-12T22:03:43.873Z,67.89
2023-03-12T22:06:11.920Z,68.30
2023-03-12T22:08:39.616Z,68.94
2023-03-12T22:11:08.242Z,69.06
2023-03-12T22:13:35.411Z,68.98
2023-03-12T22:16:06.789Z,70.06
2023-03-12T22:18:38.240Z,69.61
2023-03-12T22:21:07.443Z,69.86
2023-03-12T22:23:37.695Z,69.76
2023-03-12T22:26:06.610Z,69.54
2023-03-12T22:28:34.319Z,69.91
2023-03-12T22:31:04.707Z,70.20
2023-03-12T22:33:32.246Z,70.30
2023-03-12T22:35:59.351Z,70.57
2023-03-12T22:38:26.762Z,70.84
2023-03-12T22:40:55.674Z,71.37
2023-03-12T22:43:25.615Z,71.63
2023-03-12T22:45:54.110Z,72.15
2023-03-12T22:48:21.189Z,71.67
2023-03-12T22:50:54.561Z,72.37
2023-03-12T22:53:22.303Z,72.69
2023-03-12T22:55:58.678Z,71.60
2023-03-12T22:58:26.274Z,70.91
2023-03-12T23:01:04.902Z,70.55
2023-03-12T23:03:33.692Z,71.02
2023-03-12T23:06:02.717Z,71.36
2023-03-12T23:08:30.411Z,70.96
2023-03-12T23:11:02.550Z,70.69
2023-03-12T23:13:31.088Z,69.92
2023-03-12T23:16:05.306Z,70.58
2023-03-12T23:18:33.289Z,70.63
2023-03-12T23:21:02.506Z,70.75
2023-03-12T23:23:30.185Z,70.17
2023-03-12T23:25:58.814Z,69.98
2023-03-12T23:28:27.657Z,69.56
2023-03-12T23:30:59.409Z,69.81
2023-03-12T23:33:27.536Z,69.87
2023-03-12T23:36:03.797Z,70.40
2023-03-12T23:38:31.805Z,70.73
2023-03-12T23:41:00.860Z,72.43
2023-03-12T23:43:28.377Z,72.52
2023-03-12T23:46:00.222Z,73.41
2023-03-12T23:48:28.823Z,72.77
2023-03-12T23:51:22.515Z,72.66
2023-03-12T23:53:51.242Z,72.84
2023-03-12T23:56:20.883Z,73.42
2023-03-12T23:58:48.727Z,73.46
